Loma Linda, Missouri
Current Conditions -  °F | °C
As of 11:53 AM on Sunday 25 Jan 2015 (Local Time) from KJLN Reporting Station
Overcast Overcast  
Wind Chill: 33°   Ceiling: 2400
Heat Index: 42°   Visibility: 10mi
Dew Point: 31°   Wind: 23mph
Humidity: 65%   Direction: 320°NW
Pressure: 29.84"   Gusts: 31mph
Location:  37.0039°N, 94.5308°W
Report Text: KJLN 251753Z 32020G27KT 10SM OVC024 06/M01 A2984 RMK AO2 PK WND 31028/1715 SLP106 T00561006 10094 20056 51030
Loading
Personal Weather Stations






























Interactive Weather Map New forecast layout! Learn more

10-Day Weather Forecast

Advertisements
Track Severe Weather on mobile